createdAt,value
2018-09-05T07:09:44.375Z,70.32
2018-09-05T07:11:20.000Z,70.10
2018-09-05T07:12:55.323Z,68.90
2018-09-05T07:14:31.045Z,68.06
2018-09-05T07:16:06.157Z,68.10
2018-09-05T07:17:41.189Z,65.48
2018-09-05T07:19:18.065Z,64.94
2018-09-05T07:21:05.689Z,65.87
2018-09-05T07:22:32.683Z,66.85
2018-09-05T07:24:09.590Z,66.23
2018-09-05T07:25:45.274Z,65.90
2018-09-05T07:27:21.548Z,65.89
2018-09-05T07:28:56.766Z,65.14
2018-09-05T07:30:33.314Z,65.11
2018-09-05T07:32:08.711Z,62.14
2018-09-05T07:33:45.926Z,59.72
2018-09-05T07:35:20.930Z,56.76
2018-09-05T07:36:57.698Z,56.43
2018-09-05T07:38:34.920Z,56.21
2018-09-05T07:40:12.914Z,54.26
2018-09-05T07:41:50.479Z,54.04
2018-09-05T07:43:26.707Z,54.76
2018-09-05T07:45:03.852Z,56.37
2018-09-05T07:46:40.907Z,54.95
2018-09-05T07:48:17.346Z,53.61
2018-09-05T07:49:53.683Z,53.12
2018-09-05T07:51:29.019Z,52.29
2018-09-05T07:53:06.741Z,53.21
2018-09-05T07:54:41.885Z,51.01
2018-09-05T07:56:17.338Z,51.17
2018-09-05T07:57:52.324Z,49.92
2018-09-05T07:59:29.801Z,50.24
2018-09-05T08:01:07.198Z,50.97
2018-09-05T08:02:45.012Z,49.89
2018-09-05T08:04:20.293Z,50.34
2018-09-05T08:05:56.876Z,49.06
2018-09-05T08:07:32.795Z,48.45
2018-09-05T08:09:13.108Z,47.63
2018-09-05T08:10:49.392Z,49.27
2018-09-05T08:12:25.265Z,49.46
2018-09-05T08:14:00.458Z,50.03
2018-09-05T08:15:36.402Z,50.14
2018-09-05T08:17:15.248Z,49.09
2018-09-05T08:18:50.295Z,50.46
2018-09-05T08:20:28.662Z,50.54
2018-09-05T08:22:04.682Z,49.40
2018-09-05T08:23:42.101Z,47.67
2018-09-05T08:25:20.110Z,48.41
2018-09-05T08:26:55.741Z,49.91
2018-09-05T08:28:31.717Z,48.63
2018-09-05T08:30:08.048Z,49.72
2018-09-05T08:31:43.631Z,49.80
2018-09-05T08:33:20.030Z,49.22
2018-09-05T08:34:55.929Z,49.33
2018-09-05T08:36:31.076Z,48.41
2018-09-05T08:38:05.834Z,47.53
2018-09-05T08:39:41.523Z,49.83
2018-09-05T08:41:17.051Z,50.50
2018-09-05T08:42:52.979Z,49.68
2018-09-05T08:44:29.259Z,49.67
2018-09-05T08:46:04.771Z,51.02
2018-09-05T08:47:42.489Z,49.97
2018-09-05T08:49:18.337Z,49.23
2018-09-05T08:50:53.327Z,49.75
2018-09-05T08:52:28.401Z,50.63
2018-09-05T08:54:05.086Z,48.24
2018-09-05T08:55:40.768Z,48.59
2018-09-05T08:57:18.296Z,48.46
2018-09-05T08:58:55.058Z,48.78
2018-09-05T09:00:33.441Z,48.51
2018-09-05T09:02:09.323Z,46.94
2018-09-05T09:03:44.303Z,46.00
2018-09-05T09:05:19.206Z,46.08
2018-09-05T09:06:57.456Z,46.58
2018-09-05T09:08:32.513Z,46.16
2018-09-05T09:10:08.517Z,46.74
2018-09-05T09:11:43.544Z,45.55
2018-09-05T09:13:27.684Z,45.35
2018-09-05T09:15:05.984Z,45.00
2018-09-05T09:16:42.661Z,43.42
2018-09-05T09:18:18.072Z,42.79
2018-09-05T09:19:55.187Z,43.10
2018-09-05T09:21:30.225Z,42.48
2018-09-05T09:23:05.346Z,42.45
2018-09-05T09:24:40.753Z,42.25
2018-09-05T09:26:19.397Z,42.27
2018-09-05T09:27:54.681Z,41.89
2018-09-05T09:29:30.303Z,41.64
2018-09-05T09:31:05.862Z,41.52
2018-09-05T09:32:49.241Z,39.46
2018-09-05T09:34:28.628Z,41.03
2018-09-05T09:36:06.764Z,40.22
2018-09-05T09:38:12.220Z,42.38
2018-09-05T09:39:50.539Z,41.69
2018-09-05T09:41:28.269Z,41.58
2018-09-05T09:43:03.368Z,42.09
2018-09-05T09:44:40.061Z,42.53
2018-09-05T09:46:15.741Z,42.23
2018-09-05T09:47:51.973Z,42.12
2018-09-05T09:49:28.010Z,40.77
2018-09-05T09:51:03.219Z,40.94
2018-09-05T09:52:40.745Z,42.68
2018-09-05T09:54:16.420Z,41.75
2018-09-05T09:55:54.395Z,42.38
2018-09-05T09:57:31.279Z,40.81
2018-09-05T09:59:06.467Z,40.94
2018-09-05T10:00:47.356Z,40.21
2018-09-05T10:02:27.451Z,38.99
2018-09-05T10:04:08.519Z,40.52
2018-09-05T10:05:49.285Z,40.72
2018-09-05T10:07:29.701Z,42.28
2018-09-05T10:09:10.065Z,44.52
2018-09-05T10:10:50.746Z,44.46
2018-09-05T10:12:32.331Z,44.26
2018-09-05T10:14:16.884Z,45.56
2018-09-05T10:15:56.829Z,45.42
2018-09-05T10:17:35.476Z,47.63
2018-09-05T10:19:33.321Z,47.07
2018-09-05T10:21:09.984Z,46.35
2018-09-05T10:22:47.418Z,47.10
2018-09-05T10:24:29.506Z,48.30
2018-09-05T10:26:05.080Z,47.92
2018-09-05T10:27:41.606Z,48.59
2018-09-05T10:29:16.980Z,48.68
2018-09-05T10:30:52.576Z,49.91
2018-09-05T10:32:28.259Z,48.49
2018-09-05T10:34:05.195Z,48.56
2018-09-05T10:35:40.445Z,49.02
2018-09-05T10:37:17.230Z,49.41
2018-09-05T10:38:52.630Z,49.46
2018-09-05T10:40:28.227Z,48.54
2018-09-05T10:42:03.469Z,46.78
2018-09-05T10:43:50.366Z,48.33
2018-09-05T10:45:32.351Z,48.96
2018-09-05T10:47:08.344Z,47.67
2018-09-05T10:48:43.313Z,46.73
2018-09-05T10:50:19.553Z,47.86
2018-09-05T10:51:56.834Z,47.68
2018-09-05T10:53:36.200Z,47.05
2018-09-05T10:55:14.024Z,47.00
2018-09-05T10:56:49.527Z,48.99
2018-09-05T10:58:26.170Z,48.24
2018-09-05T11:00:04.343Z,46.12
2018-09-05T11:01:43.374Z,47.47
2018-09-05T11:03:20.917Z,48.02
2018-09-05T11:04:56.917Z,45.35
2018-09-05T11:06:37.677Z,45.10
2018-09-05T11:08:15.373Z,45.17
2018-09-05T11:09:50.552Z,45.17
2018-09-05T11:11:27.203Z,43.39
2018-09-05T11:13:03.531Z,43.55
2018-09-05T11:14:39.693Z,41.78
2018-09-05T11:16:15.273Z,42.50
2018-09-05T11:17:50.713Z,41.20
2018-09-05T11:19:27.856Z,41.30
2018-09-05T11:21:11.289Z,41.51
2018-09-05T11:22:47.965Z,40.48
2018-09-05T11:24:24.315Z,41.05
2018-09-05T11:26:02.366Z,40.99
2018-09-05T11:27:40.419Z,40.48
2018-09-05T11:29:16.357Z,42.41
2018-09-05T11:30:52.248Z,41.01
2018-09-05T11:32:30.565Z,41.76
2018-09-05T11:34:07.565Z,40.67
2018-09-05T11:35:42.626Z,38.94
2018-09-05T11:37:18.308Z,41.40
2018-09-05T11:38:56.611Z,41.61
2018-09-05T11:40:33.833Z,42.00
2018-09-05T11:42:08.722Z,42.17
2018-09-05T11:43:43.896Z,40.16
2018-09-05T11:45:19.897Z,41.53
2018-09-05T11:46:55.501Z,41.24
2018-09-05T11:48:30.461Z,41.55
2018-09-05T11:50:05.840Z,40.53
2018-09-05T11:51:43.943Z,41.80
2018-09-05T11:53:19.922Z,42.80
2018-09-05T11:55:33.253Z,42.29
2018-09-05T11:57:09.052Z,42.69
2018-09-05T11:58:44.829Z,43.40
2018-09-05T12:00:20.719Z,42.53
2018-09-05T12:01:57.660Z,42.61
2018-09-05T12:03:34.794Z,43.47
2018-09-05T12:05:12.587Z,43.25
2018-09-05T12:06:49.122Z,43.39
2018-09-05T12:08:24.352Z,43.41
2018-09-05T12:09:59.826Z,42.59
2018-09-05T12:11:36.187Z,43.96
2018-09-05T12:13:11.643Z,42.32
2018-09-05T12:14:47.261Z,41.76
2018-09-05T12:16:23.574Z,42.47
2018-09-05T12:18:00.784Z,42.21
2018-09-05T12:19:37.476Z,41.29
2018-09-05T12:21:12.981Z,39.47
2018-09-05T12:22:49.278Z,38.90
2018-09-05T12:24:26.707Z,38.44
2018-09-05T12:27:46.232Z,38.80
2018-09-05T12:29:24.109Z,37.04
2018-09-05T12:30:59.627Z,37.79
2018-09-05T12:32:35.283Z,38.31
2018-09-05T12:34:25.581Z,37.26
2018-09-05T12:36:00.900Z,36.16
2018-09-05T12:37:36.536Z,35.67
2018-09-05T12:39:14.666Z,37.59
2018-09-05T12:40:56.698Z,36.21
2018-09-05T12:42:33.733Z,35.35
2018-09-05T12:44:12.098Z,35.80
2018-09-05T12:45:49.795Z,38.31
2018-09-05T12:47:26.478Z,35.48
2018-09-05T12:49:03.974Z,37.25
2018-09-05T12:50:44.507Z,38.49
2018-09-05T12:52:21.504Z,37.02
2018-09-05T12:54:01.665Z,37.46
2018-09-05T12:55:38.300Z,38.33
2018-09-05T12:57:14.129Z,38.61
2018-09-05T12:58:49.457Z,38.43
2018-09-05T13:00:26.939Z,39.71
2018-09-05T13:02:05.810Z,40.10
2018-09-05T13:03:43.371Z,40.00
2018-09-05T13:05:19.915Z,38.94
2018-09-05T13:06:58.141Z,39.65
2018-09-05T13:08:34.561Z,40.31
2018-09-05T13:10:10.632Z,39.85
2018-09-05T13:11:47.416Z,38.87
2018-09-05T13:13:23.903Z,39.89
2018-09-05T13:15:03.701Z,39.87
2018-09-05T13:16:44.117Z,39.07
2018-09-05T13:18:22.656Z,41.48
2018-09-05T13:20:00.253Z,38.24
2018-09-05T13:21:57.699Z,38.53
2018-09-05T13:23:43.055Z,38.63
2018-09-05T13:25:29.674Z,38.92
2018-09-05T13:27:07.530Z,37.81
2018-09-05T13:28:48.556Z,39.06
2018-09-05T13:30:25.896Z,38.78
2018-09-05T13:32:14.641Z,38.71
2018-09-05T13:34:02.706Z,36.93
2018-09-05T13:35:39.592Z,38.06
2018-09-05T13:37:15.873Z,37.12
2018-09-05T13:38:51.901Z,37.21
2018-09-05T13:40:28.167Z,37.84
2018-09-05T13:42:05.236Z,37.54
2018-09-05T13:43:42.301Z,36.18
2018-09-05T13:45:18.164Z,37.04
2018-09-05T13:46:54.811Z,36.46
2018-09-05T13:48:41.185Z,37.65
2018-09-05T13:50:19.129Z,38.19
2018-09-05T13:52:01.294Z,37.77
2018-09-05T13:53:50.201Z,38.78
2018-09-05T13:55:27.023Z,38.26
2018-09-05T13:57:05.402Z,39.06
2018-09-05T13:58:46.204Z,39.73
2018-09-05T14:00:26.699Z,40.06
2018-09-05T14:02:42.276Z,38.66
2018-09-05T14:04:22.852Z,40.87
2018-09-05T14:06:01.407Z,40.31
2018-09-05T14:07:46.766Z,41.31
2018-09-05T14:09:30.784Z,40.96
2018-09-05T14:11:06.768Z,43.36
2018-09-05T14:12:44.383Z,43.42
2018-09-05T14:14:20.715Z,42.99
2018-09-05T14:16:01.334Z,43.03
2018-09-05T14:17:39.508Z,43.28
2018-09-05T14:19:20.055Z,45.22
2018-09-05T14:21:02.871Z,44.39
2018-09-05T14:22:44.329Z,44.63
2018-09-05T14:24:29.576Z,44.61
2018-09-05T14:26:08.261Z,43.30
2018-09-05T14:27:53.120Z,44.44
2018-09-05T14:29:31.838Z,43.80
2018-09-05T14:31:11.734Z,44.27
2018-09-05T14:32:51.520Z,43.80
2018-09-05T14:34:29.445Z,43.08
2018-09-05T14:36:06.000Z,42.94
2018-09-05T14:37:42.690Z,41.12
2018-09-05T14:39:20.978Z,41.67
2018-09-05T14:43:05.357Z,41.35
2018-09-05T14:44:42.002Z,39.97
2018-09-05T14:46:19.393Z,38.80
2018-09-05T14:47:57.018Z,38.78
2018-09-05T14:49:37.897Z,40.15
2018-09-05T14:51:15.843Z,40.59
2018-09-05T14:52:58.027Z,41.39
2018-09-05T14:54:42.539Z,41.21
2018-09-05T14:56:21.658Z,41.20
2018-09-05T14:57:57.606Z,41.20
2018-09-05T14:59:37.639Z,42.30
2018-09-05T15:01:14.441Z,42.10
2018-09-05T15:02:52.149Z,41.99
2018-09-05T15:04:29.533Z,43.87
2018-09-05T15:06:08.811Z,42.94
2018-09-05T15:07:51.316Z,43.95
2018-09-05T15:09:27.928Z,43.63
2018-09-05T15:11:06.464Z,44.75
2018-09-05T15:12:43.667Z,44.27
2018-09-05T15:14:22.223Z,44.49
2018-09-05T15:15:59.067Z,44.34
2018-09-05T15:17:37.759Z,44.56
2018-09-05T15:19:13.381Z,45.04
2018-09-05T15:20:49.448Z,43.97
2018-09-05T15:22:26.134Z,43.61
2018-09-05T15:24:02.532Z,45.77
2018-09-05T15:25:39.819Z,43.20
2018-09-05T15:27:15.606Z,45.26
2018-09-05T15:28:52.811Z,43.67
2018-09-05T15:30:29.457Z,43.53
2018-09-05T15:32:05.649Z,42.22
2018-09-05T15:33:45.890Z,42.31
2018-09-05T15:35:23.946Z,42.98
2018-09-05T15:38:48.643Z,41.20
2018-09-05T15:40:25.759Z,42.85
2018-09-05T15:42:05.196Z,41.65
2018-09-05T15:43:45.568Z,42.28
2018-09-05T15:45:21.466Z,43.02
2018-09-05T15:46:58.071Z,42.41
2018-09-05T15:48:35.678Z,43.65
2018-09-05T15:50:12.894Z,42.76
2018-09-05T15:51:49.744Z,42.97
2018-09-05T15:53:27.100Z,43.67
2018-09-05T15:55:04.486Z,43.34
2018-09-05T15:56:46.262Z,42.40
2018-09-05T15:58:23.865Z,43.34
2018-09-05T16:00:04.167Z,43.22
2018-09-05T16:01:44.494Z,41.96
2018-09-05T16:03:24.203Z,42.39
2018-09-05T16:05:00.828Z,43.88
2018-09-05T16:06:40.418Z,43.58
2018-09-05T16:08:20.860Z,42.52
2018-09-05T16:10:02.238Z,43.10
2018-09-05T16:11:42.305Z,43.51
2018-09-05T16:13:20.253Z,43.46
2018-09-05T16:14:58.614Z,43.25
2018-09-05T16:16:35.499Z,42.72
2018-09-05T16:18:15.974Z,43.85
2018-09-05T16:19:57.494Z,42.96
2018-09-05T16:23:17.412Z,43.68
2018-09-05T16:24:56.722Z,43.61
2018-09-05T16:26:32.938Z,43.57
2018-09-05T16:28:11.370Z,43.06
2018-09-05T16:29:50.720Z,43.60
2018-09-05T16:31:32.512Z,43.94
2018-09-05T16:33:11.349Z,43.56
2018-09-05T16:34:48.473Z,43.33
2018-09-05T16:36:25.916Z,42.85
2018-09-05T16:38:02.121Z,42.81
2018-09-05T16:39:38.176Z,43.60
2018-09-05T16:41:14.616Z,44.19
2018-09-05T16:42:50.314Z,42.46
2018-09-05T16:44:26.534Z,44.26
2018-09-05T16:46:04.685Z,42.63
2018-09-05T16:47:42.361Z,42.53
2018-09-05T16:49:23.491Z,43.87
2018-09-05T16:51:02.276Z,43.56
2018-09-05T16:52:50.677Z,43.99
2018-09-05T16:54:35.734Z,43.29
2018-09-05T16:56:17.921Z,44.24
2018-09-05T16:57:58.496Z,42.55
2018-09-05T16:59:40.428Z,44.10
2018-09-05T17:01:20.680Z,43.21
2018-09-05T17:03:02.220Z,43.85
2018-09-05T17:04:39.474Z,43.05
2018-09-05T17:06:16.715Z,42.72
2018-09-05T17:07:55.531Z,43.26
2018-09-05T17:09:33.783Z,43.50
2018-09-05T17:11:11.360Z,42.56
2018-09-05T17:12:48.899Z,43.27
2018-09-05T17:14:26.113Z,44.43
2018-09-05T17:16:05.756Z,42.83
2018-09-05T17:17:45.339Z,43.76
2018-09-05T17:19:28.573Z,43.14
2018-09-05T17:21:05.584Z,43.08
2018-09-05T17:22:46.074Z,43.94
2018-09-05T17:24:23.470Z,44.70
2018-09-05T17:26:00.762Z,44.31
2018-09-05T17:27:40.511Z,44.43
2018-09-05T17:29:20.792Z,45.11
2018-09-05T17:30:57.549Z,44.64
2018-09-05T17:32:39.511Z,45.15
2018-09-05T17:34:18.102Z,45.52
2018-09-05T17:36:06.739Z,45.55
2018-09-05T17:37:46.453Z,46.05
2018-09-05T17:39:23.736Z,45.89
2018-09-05T17:41:01.183Z,45.89
2018-09-05T17:42:36.331Z,46.00
2018-09-05T17:44:13.112Z,46.97
2018-09-05T17:45:50.335Z,47.35
2018-09-05T17:47:33.655Z,46.71
2018-09-05T17:49:12.526Z,46.92
2018-09-05T17:50:54.724Z,47.58
2018-09-05T17:52:32.329Z,48.96
2018-09-05T17:54:13.299Z,49.15
2018-09-05T17:55:56.595Z,48.60
2018-09-05T17:57:35.707Z,49.87
2018-09-05T17:59:19.970Z,48.96
2018-09-05T18:01:01.198Z,49.06
2018-09-05T18:02:39.095Z,50.31
2018-09-05T18:06:03.556Z,50.95
2018-09-05T18:07:46.559Z,50.75
2018-09-05T18:09:32.366Z,50.89
2018-09-05T18:11:11.324Z,51.79
2018-09-05T18:12:48.433Z,51.64
2018-09-05T18:14:35.563Z,51.17
2018-09-05T18:16:17.913Z,52.19
2018-09-05T18:17:55.556Z,52.75
2018-09-05T18:19:40.245Z,53.91
2018-09-05T18:21:21.888Z,54.39
2018-09-05T18:23:02.746Z,54.87
2018-09-05T18:24:47.766Z,54.90
2018-09-05T18:26:25.227Z,55.89
2018-09-05T18:28:07.647Z,56.90
2018-09-05T18:29:45.785Z,54.17
2018-09-05T18:31:25.669Z,54.55
2018-09-05T18:33:05.294Z,56.38
2018-09-05T18:34:44.524Z,56.20
2018-09-05T18:36:30.286Z,56.18
2018-09-05T18:38:07.522Z,55.47
2018-09-05T18:39:45.785Z,57.00
2018-09-05T18:41:24.823Z,57.53
2018-09-05T18:43:02.296Z,56.04
2018-09-05T18:44:38.680Z,56.44
2018-09-05T18:46:20.822Z,56.95
2018-09-05T18:47:59.761Z,56.55
2018-09-05T18:49:36.784Z,56.14
2018-09-05T18:51:16.482Z,57.56
2018-09-05T18:53:04.498Z,56.75
2018-09-05T18:54:42.737Z,57.62
2018-09-05T18:56:24.269Z,57.50
2018-09-05T18:58:01.369Z,56.79
2018-09-05T18:59:39.930Z,56.91
2018-09-05T19:01:16.322Z,56.72
2018-09-05T19:02:54.898Z,56.22
2018-09-05T19:04:36.496Z,55.73
2018-09-05T19:06:19.366Z,56.47
2018-09-05T19:08:08.343Z,55.93
2018-09-05T19:09:49.383Z,56.18
2018-09-05T19:11:27.029Z,57.12
2018-09-05T19:13:14.336Z,56.69
2018-09-05T19:16:49.011Z,56.96
2018-09-05T19:18:27.225Z,56.62
2018-09-05T19:21:54.562Z,57.33
2018-09-05T19:23:43.511Z,58.10
2018-09-05T19:25:22.727Z,58.72
2018-09-05T19:27:01.381Z,58.38
2018-09-05T19:28:39.301Z,58.12
2018-09-05T19:30:25.760Z,58.79
2018-09-05T19:32:10.156Z,58.58
2018-09-05T19:33:55.528Z,58.94
2018-09-05T19:35:32.696Z,57.18
2018-09-05T19:37:15.358Z,58.10
2018-09-05T19:38:53.550Z,58.10
2018-09-05T19:40:29.759Z,58.09
2018-09-05T19:42:07.432Z,57.16
2018-09-05T19:43:48.162Z,57.89
2018-09-05T19:45:25.489Z,57.35
2018-09-05T19:47:02.650Z,57.37
2018-09-05T19:48:41.213Z,56.38
2018-09-05T19:50:18.861Z,56.43
2018-09-05T19:52:02.385Z,55.99
2018-09-05T19:53:48.555Z,56.56
2018-09-05T19:55:36.161Z,56.86
2018-09-05T19:57:22.565Z,56.60
2018-09-05T19:59:04.336Z,57.58
2018-09-05T20:00:42.606Z,57.38
2018-09-05T20:02:25.842Z,56.11
2018-09-05T20:04:07.834Z,56.92
2018-09-05T20:05:48.557Z,55.65
2018-09-05T20:07:28.398Z,57.23
2018-09-05T20:09:05.511Z,55.84
2018-09-05T20:10:44.680Z,57.97
2018-09-05T20:12:25.286Z,55.14
2018-09-05T20:14:05.652Z,56.51
2018-09-05T20:15:52.026Z,57.15
2018-09-05T20:17:35.468Z,56.02
2018-09-05T20:19:12.731Z,56.99
2018-09-05T20:20:49.866Z,57.16
2018-09-05T20:22:27.295Z,56.60
2018-09-05T20:24:05.043Z,57.36
2018-09-05T20:25:43.101Z,57.40
2018-09-05T20:27:19.357Z,58.57
2018-09-05T20:28:55.601Z,57.69
2018-09-05T20:30:33.265Z,58.39
2018-09-05T20:32:11.697Z,56.64
2018-09-05T20:33:52.191Z,58.19
2018-09-05T20:35:28.295Z,58.17
2018-09-05T20:37:04.004Z,58.34
2018-09-05T20:38:40.336Z,60.26
2018-09-05T20:40:18.425Z,60.25
2018-09-05T20:41:57.179Z,59.58
2018-09-05T20:43:34.969Z,59.16
2018-09-05T20:45:21.394Z,60.32
2018-09-05T20:47:01.298Z,60.75
2018-09-05T20:50:25.418Z,61.22
2018-09-05T20:52:03.013Z,61.01
2018-09-05T20:53:40.320Z,59.90
2018-09-05T20:55:22.997Z,60.40
2018-09-05T20:57:00.679Z,60.51
2018-09-05T20:58:37.915Z,60.55
2018-09-05T21:00:16.453Z,60.18
2018-09-05T21:01:53.720Z,60.91
2018-09-05T21:03:30.024Z,61.30
2018-09-05T21:05:06.237Z,60.64
2018-09-05T21:06:42.520Z,60.40
2018-09-05T21:08:17.783Z,60.64
2018-09-05T21:09:54.640Z,61.39
2018-09-05T21:11:32.694Z,62.14
2018-09-05T21:13:08.557Z,62.27
2018-09-05T21:14:45.376Z,61.49
2018-09-05T21:16:25.938Z,62.70
2018-09-05T21:18:02.140Z,63.71
2018-09-05T21:19:44.480Z,63.57
2018-09-05T21:21:28.143Z,63.31
2018-09-05T21:23:10.754Z,64.10
2018-09-05T21:24:47.854Z,63.41
2018-09-05T21:26:26.375Z,62.99
2018-09-05T21:28:09.740Z,63.47
2018-09-05T21:30:00.409Z,63.32
2018-09-05T21:33:59.234Z,64.21
2018-09-05T21:35:35.163Z,64.91
2018-09-05T21:37:17.349Z,64.43
2018-09-05T21:38:55.849Z,64.56
2018-09-05T21:40:32.535Z,64.86
2018-09-05T21:42:16.532Z,65.20
2018-09-05T21:43:54.147Z,66.37
2018-09-05T21:45:36.074Z,66.41
2018-09-05T21:47:13.393Z,67.34
2018-09-05T21:48:51.515Z,67.30
2018-09-05T21:50:27.980Z,67.99
2018-09-05T21:52:06.410Z,68.67
2018-09-05T21:53:42.574Z,68.71
2018-09-05T21:55:18.201Z,67.93
2018-09-05T21:56:53.722Z,68.13
2018-09-05T21:58:28.994Z,68.25
2018-09-05T22:00:06.079Z,68.62
2018-09-05T22:01:41.571Z,68.57
2018-09-05T22:03:22.038Z,68.84
2018-09-05T22:04:59.219Z,68.39
2018-09-05T22:06:34.982Z,68.82
2018-09-05T22:08:10.766Z,67.91
2018-09-05T22:09:46.345Z,67.98
2018-09-05T22:11:24.863Z,66.79
2018-09-05T22:13:00.917Z,66.41
2018-09-05T22:14:38.539Z,64.93
2018-09-05T22:16:14.079Z,63.64
2018-09-05T22:17:49.974Z,63.89
2018-09-05T22:19:26.247Z,63.31
2018-09-05T22:21:02.231Z,62.78
2018-09-05T22:22:37.422Z,62.49
2018-09-05T22:24:13.248Z,63.36
2018-09-05T22:25:50.547Z,62.09
2018-09-05T22:27:32.259Z,62.36
2018-09-05T22:29:09.710Z,62.05
2018-09-05T22:30:46.139Z,62.69
2018-09-05T22:32:21.992Z,62.62
2018-09-05T22:33:57.902Z,61.61
2018-09-05T22:35:33.485Z,60.63
2018-09-05T22:37:10.459Z,61.57
2018-09-05T22:38:45.850Z,61.69
2018-09-05T22:40:21.840Z,61.57
2018-09-05T22:41:58.699Z,62.64
2018-09-05T22:43:45.146Z,61.89
2018-09-05T22:45:31.616Z,62.21
2018-09-05T22:47:17.577Z,63.15
2018-09-05T22:49:04.115Z,64.07
2018-09-05T22:52:04.982Z,64.43
2018-09-05T22:54:02.313Z,65.42
2018-09-05T23:05:32.597Z,65.52
2018-09-05T23:09:16.796Z,67.00
2018-09-05T23:11:04.280Z,67.34
2018-09-05T23:12:51.018Z,67.68
2018-09-05T23:15:39.301Z,67.91
2018-09-05T23:17:28.344Z,67.98
2018-09-05T23:19:29.624Z,68.56
2018-09-05T23:21:26.484Z,68.95
2018-09-05T23:23:15.671Z,69.07
2018-09-05T23:24:52.812Z,69.07
2018-09-05T23:26:28.684Z,69.39
2018-09-05T23:28:04.712Z,68.88
2018-09-05T23:29:40.142Z,68.72
2018-09-05T23:31:18.847Z,68.89
2018-09-05T23:32:54.239Z,69.35
2018-09-05T23:34:29.641Z,68.65
2018-09-05T23:36:05.587Z,68.86
2018-09-05T23:37:42.120Z,68.73
2018-09-05T23:39:19.843Z,68.52
2018-09-05T23:41:05.339Z,68.81
2018-09-05T23:42:40.770Z,68.71
2018-09-05T23:44:15.995Z,68.80
2018-09-05T23:45:51.498Z,69.65
2018-09-05T23:47:29.129Z,69.57
2018-09-05T23:49:04.653Z,69.62
2018-09-05T23:50:40.331Z,69.31
2018-09-05T23:52:15.644Z,70.01
2018-09-05T23:53:51.414Z,69.50
2018-09-05T23:55:28.318Z,69.92
2018-09-05T23:57:07.514Z,70.11
2018-09-05T23:58:44.978Z,70.14
